Time;durP1;ratioP1;P1;durP2;ratioP2;P2;SDS_P1;SDS_P2;PMS_P1;PMS_P2;Temp;Humidity;BMP_temperature;BMP_pressure;BME280_temperature;BME280_humidity;BME280_pressure;Samples;Min_cycle;Max_cycle;Signal;HPM_P1;HPM_P2
2021/10/15 00:02:05;;;;;;;6.77;1.20;;;;;;;;;;4818661;28;20199;-83
2021/10/15 00:04:28;;;;;;;5.43;1.10;;;;;;;;;;4838405;28;20233;-88
2021/10/15 00:06:51;;;;;;;9.90;1.77;;;;;;;;;;4804437;28;20252;-87
2021/10/15 00:09:13;;;;;;;8.63;1.63;;;;;;;;;;4837780;28;20192;-85
2021/10/15 00:11:37;;;;;;;6.07;1.20;;;;;;;;;;4821178;28;20199;-84
2021/10/15 00:14:00;;;;;;;7.20;1.33;;;;;;;;;;4820461;28;20203;-82
2021/10/15 00:16:24;;;;;;;6.77;1.20;;;9.40;47.40;;;;;;4804078;28;20196;-83
2021/10/15 00:18:46;;;;;;;10.10;1.73;;;8.60;48.10;;;;;;4820024;28;20192;-80
2021/10/15 00:21:10;;;;;;;5.93;1.13;;;9.00;47.30;;;;;;4819962;28;20232;-86
2021/10/15 00:23:34;;;;;;;5.13;1.00;;;9.60;47.90;;;;;;4805264;28;20250;-80
2021/10/15 00:25:56;;;;;;;3.70;0.77;;;9.00;48.20;;;;;;4838596;28;20187;-83
2021/10/15 00:28:19;;;;;;;6.03;1.13;;;9.20;47.80;;;;;;4838125;28;20256;-80
2021/10/15 00:30:42;;;;;;;10.77;1.83;;;;;;;;;;4820521;28;20191;-83
2021/10/15 00:33:08;;;;;;;5.73;1.10;;;9.10;48.40;;;;;;4820786;28;20278;-82
2021/10/15 00:35:30;;;;;;;4.17;0.90;;;;;;;;;;4804876;28;20255;-83
2021/10/15 00:37:53;;;;;;;9.67;1.80;;;9.50;47.50;;;;;;4820997;28;20195;-87
2021/10/15 00:40:16;;;;;;;3.50;0.83;;;9.80;47.60;;;;;;4838078;28;20219;-82
2021/10/15 00:42:39;;;;;;;11.63;1.83;;;;;;;;;;4837898;28;20179;-86
2021/10/15 00:45:01;;;;;;;3.90;0.80;;;9.40;47.50;;;;;;4821391;28;20198;-82
2021/10/15 00:47:24;;;;;;;4.90;1.07;;;9.20;47.40;;;;;;4838014;28;20252;-81
2021/10/15 00:49:48;;;;;;;9.10;1.67;;;9.20;48.50;;;;;;4838038;28;20190;-83
2021/10/15 00:52:11;;;;;;;5.80;1.07;;;8.70;47.30;;;;;;4820339;28;20195;-82
2021/10/15 00:54:35;;;;;;;3.23;0.70;;;;;;;;;;4837887;28;20199;-85
2021/10/15 00:56:58;;;;;;;5.27;1.00;;;9.00;47.40;;;;;;4820824;28;20234;-83
2021/10/15 00:59:20;;;;;;;6.97;1.27;;;9.10;48.50;;;;;;4820285;28;20303;-81
2021/10/15 01:01:43;;;;;;;10.20;1.67;;;9.10;48.50;;;;;;4819157;28;20234;-81
2021/10/15 01:04:06;;;;;;;5.17;1.03;;;9.10;48.50;;;;;;4819893;28;20705;-84
2021/10/15 01:06:32;;;;;;;3.97;0.83;;;9.10;48.50;;;;;;4820651;28;20187;-85
2021/10/15 01:08:55;;;;;;;2.23;0.50;;;;;;;;;;4820271;28;20864;-84
2021/10/15 01:11:19;;;;;;;5.47;1.10;;;9.50;47.60;;;;;;4820283;28;20195;-79
2021/10/15 01:13:42;;;;;;;11.03;1.77;;;9.10;48.50;;;;;;4820781;28;20229;-83
2021/10/15 01:16:06;;;;;;;4.87;1.00;;;9.10;48.50;;;;;;4820537;28;20234;-82
2021/10/15 01:18:28;;;;;;;5.00;1.00;;;8.80;47.40;;;;;;4820361;28;20218;-84
2021/10/15 01:20:53;;;;;;;11.57;1.90;;;9.10;48.50;;;;;;4819925;28;20223;-83
2021/10/15 01:23:16;;;;;;;3.60;0.83;;;8.70;47.30;;;;;;4837870;28;20183;-85
2021/10/15 01:25:39;;;;;;;8.90;1.70;;;9.50;47.60;;;;;;4837362;28;20240;-85
2021/10/15 01:28:01;;;;;;;5.87;1.10;;;;;;;;;;4837813;28;20183;-83
2021/10/15 01:30:24;;;;;;;8.27;1.50;;;8.80;47.40;;;;;;4819414;28;20238;-81
2021/10/15 01:32:47;;;;;;;11.07;1.90;;;8.90;47.40;;;;;;4835365;28;20198;-80
2021/10/15 01:35:10;;;;;;;4.30;0.90;;;8.90;47.40;;;;;;4807175;28;20192;-81
2021/10/15 01:37:34;;;;;;;4.60;1.00;;;8.80;47.40;;;;;;4823515;28;20246;-80
2021/10/15 01:39:57;;;;;;;3.47;0.73;;;;;;;;;;4839518;28;20222;-82
2021/10/15 01:44:59;;;;;;;5.70;1.10;;;8.70;47.40;;;;;;4822940;28;20253;-83
2021/10/15 01:47:22;;;;;;;4.43;0.90;;;;;;;;;;4823390;28;20195;-82
2021/10/15 01:49:45;;;;;;;8.83;1.60;;;9.10;47.50;;;;;;4823194;28;20199;-81
2021/10/15 01:52:07;;;;;;;9.13;1.57;;;9.10;47.50;;;;;;4823308;28;20186;-81
2021/10/15 01:54:31;;;;;;;4.77;1.00;;;9.20;48.60;;;;;;4823833;28;20194;-83
2021/10/15 01:56:54;;;;;;;7.13;1.30;;;;;;;;;;4840212;28;20876;-86
2021/10/15 01:59:17;;;;;;;5.57;1.20;;;;;;;;;;4840808;28;20183;-85
2021/10/15 02:01:40;;;;;;;6.90;1.23;;;9.30;47.60;;;;;;4821379;28;20673;-79
2021/10/15 02:04:03;;;;;;;6.67;1.27;;;;;;;;;;4822685;28;20699;-86
2021/10/15 02:06:25;;;;;;;4.33;0.90;;;;;;;;;;4822840;28;20758;-82
2021/10/15 02:08:48;;;;;;;12.20;2.07;;;8.90;47.40;;;;;;4839767;28;20827;-81
2021/10/15 02:11:12;;;;;;;4.80;1.00;;;9.30;47.60;;;;;;4822870;28;20678;-81
2021/10/15 02:13:35;;;;;;;5.47;1.13;;;;;;;;;;4822844;28;20633;-80
2021/10/15 02:15:59;;;;;;;2.90;0.80;;;;;;;;;;4840175;28;20642;-77
2021/10/15 02:18:22;;;;;;;9.70;1.57;;;9.50;48.50;;;;;;4838763;28;20182;-79
2021/10/15 02:20:45;;;;;;;11.83;1.90;;;9.00;47.40;;;;;;4805899;28;20231;-78
2021/10/15 02:23:07;;;;;;;4.90;0.97;;;;;;;;;;4822429;28;20529;-82
2021/10/15 02:25:30;;;;;;;7.07;1.33;;;;;;;;;;4822366;28;20235;-80
2021/10/15 02:27:54;;;;;;;11.87;2.00;;;8.80;48.00;;;;;;4822145;28;20188;-79
2021/10/15 02:30:19;;;;;;;4.03;0.80;;;9.20;48.50;;;;;;4839998;28;20191;-79
2021/10/15 02:32:41;;;;;;;7.43;1.23;;;9.40;47.50;;;;;;4822583;28;20200;-80
2021/10/15 02:35:05;;;;;;;6.17;1.30;;;9.20;48.50;;;;;;4822321;28;20199;-78
2021/10/15 02:37:28;;;;;;;4.93;1.10;;;;;;;;;;4822493;28;20187;-78
2021/10/15 02:39:50;;;;;;;8.50;1.53;;;;;;;;;;4839290;28;20236;-80
2021/10/15 02:42:13;;;;;;;5.67;1.03;;;9.20;47.70;;;;;;4822109;28;20199;-80
2021/10/15 02:44:37;;;;;;;4.77;1.00;;;8.90;47.50;;;;;;4821306;28;20230;-79
2021/10/15 02:47:00;;;;;;;4.90;0.97;;;;;;;;;;4839582;28;20183;-79
2021/10/15 02:49:23;;;;;;;5.33;1.07;;;;;;;;;;4839194;28;20191;-78
2021/10/15 02:51:46;;;;;;;9.80;1.70;;;;;;;;;;4839155;28;20710;-80
2021/10/15 02:54:08;;;;;;;6.07;1.20;;;9.90;47.60;;;;;;4839025;28;20237;-83
2021/10/15 02:56:31;;;;;;;4.80;1.00;;;9.40;47.50;;;;;;4821963;28;20309;-83
2021/10/15 02:58:54;;;;;;;12.13;2.00;;;;;;;;;;4839132;28;20698;-75
2021/10/15 03:01:21;;;;;;;3.97;0.80;;;9.20;48.50;;;;;;4836269;28;20313;-79
2021/10/15 03:03:46;;;;;;;10.63;1.90;;;;;;;;;;4820917;28;20279;-80
2021/10/15 03:06:09;;;;;;;7.07;1.30;;;9.30;48.50;;;;;;4821543;28;20199;-83
2021/10/15 03:08:32;;;;;;;4.33;0.90;;;9.70;48.20;;;;;;4821556;28;20224;-83
2021/10/15 03:10:54;;;;;;;12.00;1.93;;;8.30;48.10;;;;;;4838837;28;20183;-82
2021/10/15 03:13:17;;;;;;;4.87;1.00;;;;;;;;;;4839127;28;20191;-82
2021/10/15 03:15:40;;;;;;;11.23;1.73;;;9.30;47.30;;;;;;4821454;28;20643;-85
2021/10/15 03:18:05;;;;;;;5.27;1.00;;;9.20;48.30;;;;;;4839272;28;20195;-84
2021/10/15 03:20:28;;;;;;;4.60;0.90;;;;;;;;;;4839124;28;20551;-87
2021/10/15 03:22:50;;;;;;;11.73;1.97;;;;;;;;;;4821319;28;20191;-83
2021/10/15 03:25:13;;;;;;;6.00;1.13;;;;;;;;;;4821462;28;20218;-80
2021/10/15 03:27:36;;;;;;;4.13;0.90;;;;;;;;;;4821119;28;20208;-82
2021/10/15 03:29:58;;;;;;;4.60;0.93;;;8.90;47.10;;;;;;4837425;28;20249;-79
2021/10/15 03:32:21;;;;;;;5.07;1.00;;;8.80;47.70;;;;;;4821154;28;20622;-83
2021/10/15 03:34:45;;;;;;;12.67;2.00;;;9.10;48.10;;;;;;4821006;28;20203;-81
2021/10/15 03:37:08;;;;;;;4.90;1.00;;;;;;;;;;4838606;28;20187;-84
2021/10/15 03:39:30;;;;;;;3.73;0.80;;;9.40;47.20;;;;;;4804887;28;20199;-84
2021/10/15 03:41:53;;;;;;;11.40;2.00;;;;;;;;;;4838489;28;20210;-81
2021/10/15 03:44:18;;;;;;;2.27;0.60;;;;;;;;;;4838443;28;20187;-81
2021/10/15 03:46:40;;;;;;;5.63;1.00;;;;;;;;;;4837306;28;20642;-81
2021/10/15 03:49:03;;;;;;;5.43;1.10;;;9.00;48.00;;;;;;4804747;28;20246;-81
2021/10/15 03:51:27;;;;;;;4.17;0.93;;;9.00;47.90;;;;;;4820965;28;20215;-81
2021/10/15 03:53:50;;;;;;;11.80;1.93;;;8.50;46.70;;;;;;4804326;28;20251;-78
2021/10/15 03:56:12;;;;;;;5.83;1.13;;;8.90;46.90;;;;;;4820598;28;20207;-80
2021/10/15 03:58:35;;;;;;;4.97;0.97;;;;;;;;;;4820673;28;20196;-81
2021/10/15 04:00:58;;;;;;;4.77;1.00;;;;;;;;;;4836236;28;20226;-78
2021/10/15 04:03:23;;;;;;;4.40;0.90;;;8.90;46.90;;;;;;4820902;28;20254;-82
2021/10/15 04:05:45;;;;;;;11.27;1.93;;;;;;;;;;4805031;28;20547;-78
2021/10/15 04:08:09;;;;;;;5.93;1.10;;;8.80;47.80;;;;;;4820415;28;20231;-76
2021/10/15 04:10:32;;;;;;;5.70;1.10;;;8.80;46.80;;;;;;4838177;28;20194;-77
2021/10/15 04:13:15;;;;;;;4.70;0.90;;;;;;;;;;4823527;28;20667;-79
2021/10/15 04:16:00;;;;;;;4.40;0.90;;;;;;;;;;4838103;28;20187;-83
2021/10/15 04:18:42;;;;;;;12.30;2.00;;;;;;;;;;4837943;28;20174;-78
2021/10/15 04:21:25;;;;;;;4.90;0.97;;;8.10;46.50;;;;;;4838057;28;20210;-80
2021/10/15 04:24:09;;;;;;;3.17;0.77;;;8.20;46.50;;;;;;4837937;28;20189;-79
2021/10/15 04:26:32;;;;;;;4.97;1.03;;;;;;;;;;4819866;28;20195;-78
2021/10/15 04:29:15;;;;;;;5.47;1.10;;;8.80;47.20;;;;;;4810069;28;20205;-79
2021/10/15 04:31:58;;;;;;;3.80;0.83;;;;;;;;;;4823439;28;20183;-80
2021/10/15 04:34:37;;;;;;;4.13;0.90;;;;;;;;;;4820450;28;20193;-81
2021/10/15 04:37:16;;;;;;;7.43;1.47;;;8.40;46.50;;;;;;4820308;28;20246;-79
2021/10/15 04:39:48;;;;;;;11.23;1.87;;;9.10;46.70;;;;;;4820922;28;20202;-79
2021/10/15 04:42:11;;;;;;;5.70;1.10;;;;;;;;;;4820382;28;20620;-81
2021/10/15 04:44:34;;;;;;;4.87;0.90;;;9.90;47.90;;;;;;4820496;28;20203;-79
2021/10/15 04:46:56;;;;;;;11.03;2.03;;;8.10;47.00;;;;;;4803965;28;20682;-80
2021/10/15 04:49:19;;;;;;;4.37;0.90;;;8.10;46.50;;;;;;4820018;28;20677;-80
2021/10/15 04:51:42;;;;;;;11.83;1.83;;;;;;;;;;4819817;28;20707;-80
2021/10/15 04:54:05;;;;;;;5.20;1.03;;;;;;;;;;4820048;28;20760;-79
2021/10/15 04:56:29;;;;;;;5.70;1.07;;;8.60;46.50;;;;;;4820432;28;20211;-79
2021/10/15 04:58:52;;;;;;;12.07;2.00;;;8.50;46.50;;;;;;4820197;28;20203;-79
2021/10/15 05:01:14;;;;;;;5.53;1.10;;;8.40;46.50;;;;;;4818586;28;20258;-79
2021/10/15 05:03:37;;;;;;;4.40;0.93;;;8.30;46.40;;;;;;4837737;28;20211;-79
2021/10/15 05:06:00;;;;;;;4.63;0.97;;;;;;;;;;4837960;28;20179;-79
2021/10/15 05:08:28;;;;;;;3.20;0.70;;;9.20;46.80;;;;;;4823724;28;20787;-80
2021/10/15 05:10:51;;;;;;;14.67;2.30;;;;;;;;;;4823670;28;20590;-79
2021/10/15 05:13:17;;;;;;;6.33;1.20;;;8.20;46.40;;;;;;4841212;28;20644;-76
2021/10/15 05:15:40;;;;;;;6.47;1.23;;;;;;;;;;4841064;28;20182;-78
2021/10/15 05:18:03;;;;;;;5.90;1.13;;;;;;;;;;4841199;28;20186;-79
2021/10/15 05:20:26;;;;;;;5.60;1.17;;;8.70;46.60;;;;;;4823848;28;20261;-80
2021/10/15 05:22:49;;;;;;;11.60;1.93;;;9.30;46.80;;;;;;4822696;28;20226;-80
2021/10/15 05:25:13;;;;;;;6.43;1.27;;;8.50;47.50;;;;;;4841070;28;20209;-80
2021/10/15 05:27:37;;;;;;;6.90;1.30;;;;;;;;;;4840966;28;20186;-79
2021/10/15 05:30:00;;;;;;;5.00;1.10;;;8.40;47.50;;;;;;4822912;28;20230;-79
2021/10/15 05:32:23;;;;;;;4.93;1.00;;;8.10;46.40;;;;;;4804761;28;20192;-80
2021/10/15 05:34:47;;;;;;;12.07;2.07;;;8.40;47.50;;;;;;4821799;28;20211;-80
2021/10/15 05:37:10;;;;;;;5.80;1.13;;;;;;;;;;4821638;28;20257;-79
2021/10/15 05:39:33;;;;;;;3.07;0.70;;;8.40;46.90;;;;;;4821819;28;20183;-79
2021/10/15 05:41:55;;;;;;;8.43;1.53;;;8.00;46.40;;;;;;4804504;28;20311;-80
2021/10/15 05:44:18;;;;;;;3.50;0.80;;;8.60;47.40;;;;;;4821910;28;20242;-79
2021/10/15 05:46:42;;;;;;;9.67;1.67;;;8.60;47.20;;;;;;4788570;28;20636;-79
2021/10/15 05:49:07;;;;;;;4.33;0.93;;;;;;;;;;4804534;28;20255;-79
2021/10/15 05:51:31;;;;;;;4.83;0.97;;;8.60;46.60;;;;;;4824353;28;20249;-78
2021/10/15 05:53:57;;;;;;;10.67;1.93;;;;;;;;;;4788177;28;20304;-80
2021/10/15 05:56:37;;;;;;;4.53;0.97;;;9.40;47.00;;;;;;4803993;28;20258;-80
2021/10/15 05:59:03;;;;;;;5.30;1.10;;;;;;;;;;4820452;28;20191;-80
2021/10/15 06:01:26;;;;;;;7.37;1.33;;;;;;;;;;4818795;28;20266;-78
2021/10/15 06:03:58;;;;;;;16.10;2.57;;;9.50;47.40;;;;;;4820954;28;20207;-79
2021/10/15 06:14:33;;;;;;;6.73;1.20;;;10.00;47.60;;;;;;4836260;28;20716;-77
2021/10/15 06:16:59;;;;;;;11.50;1.90;;;9.90;48.00;;;;;;4818922;28;20199;-79
2021/10/15 06:19:25;;;;;;;7.13;1.30;;;9.90;48.00;;;;;;4818397;28;20685;-81
2021/10/15 06:21:48;;;;;;;10.83;1.87;;;10.40;47.90;;;;;;4803760;28;20224;-78
2021/10/15 06:24:11;;;;;;;3.73;0.80;;;;;;;;;;4814518;28;20243;-79
2021/10/15 06:26:34;;;;;;;2.90;0.60;;;9.90;48.00;;;;;;4822785;28;20306;-79
2021/10/15 06:28:57;;;;;;;10.37;1.77;;;9.60;48.00;;;;;;4822130;28;20668;-79
2021/10/15 06:31:20;;;;;;;3.10;0.70;;;;;;;;;;4822743;28;20566;-79
2021/10/15 06:33:43;;;;;;;9.60;1.73;;;9.10;47.90;;;;;;4806268;28;20203;-79
2021/10/15 06:36:07;;;;;;;5.13;0.97;;;9.70;48.20;;;;;;4822282;28;20628;-79
2021/10/15 06:38:30;;;;;;;6.67;1.30;;;9.80;48.50;;;;;;4839839;28;20778;-78
2021/10/15 06:40:52;;;;;;;10.97;1.83;;;9.50;48.00;;;;;;4822099;28;20249;-80
2021/10/15 06:43:15;;;;;;;6.07;1.27;;;;;;;;;;4822153;28;20265;-78
2021/10/15 06:45:38;;;;;;;2.27;0.60;;;;;;;;;;4821919;28;20855;-80
2021/10/15 06:48:01;;;;;;;5.10;0.93;;;10.00;48.60;;;;;;4839830;28;20229;-86
2021/10/15 06:50:24;;;;;;;6.60;1.20;;;10.20;47.80;;;;;;4822293;28;20195;-88
2021/10/15 06:52:48;;;;;;;7.50;1.40;;;10.10;48.60;;;;;;4806774;28;20191;-83
2021/10/15 06:55:11;;;;;;;5.87;1.07;;;;;;;;;;4821783;28;20271;-83
2021/10/15 06:57:33;;;;;;;5.47;1.07;;;;;;;;;;4839574;28;20249;-81
2021/10/15 06:59:56;;;;;;;10.53;1.83;;;9.90;48.20;;;;;;4838450;28;20191;-84
2021/10/15 07:02:18;;;;;;;6.63;1.17;;;10.20;48.60;;;;;;4821305;28;20247;-80
2021/10/15 07:04:41;;;;;;;7.47;1.30;;;10.10;47.90;;;;;;4822242;28;20199;-82
2021/10/15 07:07:04;;;;;;;4.67;0.97;;;10.60;48.10;;;;;;4806274;28;20200;-80
2021/10/15 07:09:28;;;;;;;5.63;1.00;;;10.60;48.10;;;;;;4822648;28;20192;-84
2021/10/15 07:11:51;;;;;;;8.87;1.50;;;10.30;48.00;;;;;;4839981;28;20217;-83
2021/10/15 07:14:14;;;;;;;3.73;0.80;;;;;;;;;;4823220;28;20203;-81
2021/10/15 07:16:37;;;;;;;5.00;0.93;;;10.30;48.00;;;;;;4840071;28;20226;-83
2021/10/15 07:18:59;;;;;;;2.90;0.77;;;10.20;48.00;;;;;;4823021;28;20203;-85
2021/10/15 07:21:22;;;;;;;5.33;0.93;;;;;;;;;;4839718;28;20179;-90
2021/10/15 07:23:44;;;;;;;7.73;1.37;;;10.80;48.20;;;;;;4822467;28;20246;-90
2021/10/15 07:26:10;;;;;;;4.03;0.90;;;10.70;48.20;;;;;;4823103;28;20195;-88
2021/10/15 07:28:33;;;;;;;4.37;0.90;;;10.80;48.30;;;;;;4822706;28;20622;-86
2021/10/15 07:30:57;;;;;;;8.80;1.57;;;10.50;48.70;;;;;;4821709;28;20242;-86
2021/10/15 07:33:20;;;;;;;3.33;0.67;;;;;;;;;;4822521;28;20187;-85
2021/10/15 07:35:43;;;;;;;9.20;1.63;;;11.10;49.30;;;;;;4829742;28;20190;-81
2021/10/15 07:38:06;;;;;;;5.00;1.00;;;;;;;;;;4796169;28;20206;-86
2021/10/15 07:40:29;;;;;;;4.97;0.97;;;11.30;48.50;;;;;;4787150;28;20204;-85
2021/10/15 07:42:53;;;;;;;13.60;2.33;;;10.80;48.40;;;;;;4811389;28;20227;-88
2021/10/15 07:45:16;;;;;;;9.20;1.57;;;11.30;48.60;;;;;;4820581;28;20644;-81
2021/10/15 07:47:39;;;;;;;8.53;1.53;;;10.60;49.40;;;;;;4790777;28;20679;-83
2021/10/15 07:50:02;;;;;;;10.53;1.80;;;;;;;;;;4819081;28;20937;-82
2021/10/15 07:52:25;;;;;;;7.07;1.23;;;11.80;49.40;;;;;;4822204;28;20254;-83
2021/10/15 07:54:48;;;;;;;15.80;2.50;;;;;;;;;;4812178;28;20203;-80
2021/10/15 07:57:12;;;;;;;5.87;1.10;;;;;;;;;;4807527;28;20216;-82
2021/10/15 07:59:36;;;;;;;32.43;4.97;;;12.40;49.40;;;;;;4801370;28;20613;-83
2021/10/15 08:01:59;;;;;;;2.83;0.63;;;;;;;;;;4833961;28;20219;-87
2021/10/15 08:04:22;;;;;;;3.63;0.73;;;;;;;;;;4838644;28;20217;-81
2021/10/15 08:06:44;;;;;;;24.97;3.70;;;;;;;;;;4813251;28;20192;-82
2021/10/15 08:09:07;;;;;;;8.03;1.33;;;;;;;;;;4821430;28;20215;-81
2021/10/15 08:11:30;;;;;;;6.13;1.10;;;;;;;;;;4800845;28;20318;-80
2021/10/15 08:13:52;;;;;;;9.77;1.67;;;13.40;50.10;;;;;;4819076;28;20184;-79
2021/10/15 08:16:18;;;;;;;5.37;1.00;;;13.00;51.10;;;;;;4819340;28;20600;-83
2021/10/15 08:18:41;;;;;;;12.80;2.03;;;;;;;;;;4802121;28;20275;-86
2021/10/15 08:21:04;;;;;;;5.23;0.93;;;12.80;50.80;;;;;;4813219;28;20211;-79
2021/10/15 08:23:28;;;;;;;5.13;1.00;;;12.90;51.20;;;;;;4818271;28;20642;-84
2021/10/15 08:25:51;;;;;;;14.20;2.17;;;;;;;;;;4819191;28;20238;-80
2021/10/15 08:28:13;;;;;;;6.07;1.10;;;;;;;;;;4802009;28;20246;-85
2021/10/15 08:30:36;;;;;;;10.10;1.73;;;;;;;;;;4802200;28;20223;-82
2021/10/15 08:33:00;;;;;;;8.93;1.50;;;13.00;51.20;;;;;;4816547;28;20207;-80
2021/10/15 08:35:24;;;;;;;3.53;0.77;;;13.40;50.40;;;;;;4821012;28;20190;-83
2021/10/15 08:37:47;;;;;;;11.03;1.70;;;;;;;;;;4821211;28;20191;-86
2021/10/15 08:40:10;;;;;;;7.37;1.30;;;13.10;51.40;;;;;;4821335;28;20211;-83
2021/10/15 08:42:33;;;;;;;9.13;1.57;;;;;;;;;;4823116;28;20656;-81
2021/10/15 08:44:56;;;;;;;14.80;2.30;;;;;;;;;;4823687;28;20590;-81
2021/10/15 08:47:19;;;;;;;7.23;1.30;;;;;;;;;;4841601;28;20214;-80
2021/10/15 08:49:43;;;;;;;4.23;0.80;;;13.40;51.60;;;;;;4823698;28;20190;-82
2021/10/15 08:52:06;;;;;;;7.30;1.10;;;;;;;;;;4825250;28;20277;-89
2021/10/15 08:54:32;;;;;;;4.70;0.87;;;;;;;;;;4824196;28;20199;-83
2021/10/15 08:56:56;;;;;;;10.93;1.80;;;;;;;;;;4823566;28;20200;-81
2021/10/15 08:59:23;;;;;;;3.10;0.60;;;;;;;;;;4841542;28;20221;-81
2021/10/15 09:01:48;;;;;;;9.47;1.53;;;13.30;51.20;;;;;;4839823;28;20210;-84
2021/10/15 09:04:11;;;;;;;6.07;1.10;;;12.90;51.20;;;;;;4823965;28;20696;-80
2021/10/15 09:06:37;;;;;;;14.97;2.40;;;13.20;51.10;;;;;;4808224;28;20294;-79
2021/10/15 09:09:00;;;;;;;3.93;0.80;;;13.50;50.60;;;;;;4803491;28;20259;-83
2021/10/15 09:11:24;;;;;;;4.70;0.93;;;13.00;51.40;;;;;;4821785;28;20187;-84
2021/10/15 09:13:47;;;;;;;8.33;1.47;;;;;;;;;;4804728;28;20199;-81
2021/10/15 09:16:10;;;;;;;5.70;1.00;;;;;;;;;;4805213;28;20203;-81
2021/10/15 09:18:32;;;;;;;5.67;0.93;;;13.60;50.60;;;;;;4822226;28;20184;-78
2021/10/15 09:20:55;;;;;;;8.17;1.37;;;;;;;;;;4822024;28;20184;-80
2021/10/15 09:23:19;;;;;;;5.50;1.07;;;13.50;51.70;;;;;;4820718;28;20370;-79
2021/10/15 09:25:44;;;;;;;2.70;0.67;;;13.50;51.80;;;;;;4822539;28;20314;-81
2021/10/15 09:28:16;;;;;;;4.80;0.90;;;13.40;51.80;;;;;;4822797;28;20225;-82
2021/10/15 09:30:41;;;;;;;5.73;1.07;;;13.40;51.80;;;;;;4804828;28;20204;-81
2021/10/15 09:33:04;;;;;;;4.07;0.77;;;;;;;;;;4820901;28;20211;-81
2021/10/15 09:35:28;;;;;;;5.20;0.97;;;13.70;50.80;;;;;;4820852;28;20195;-80
2021/10/15 09:37:55;;;;;;;8.20;1.53;;;13.90;51.50;;;;;;4788447;28;20679;-86
2021/10/15 09:40:20;;;;;;;6.33;1.10;;;13.70;52.00;;;;;;4822371;28;20230;-76
2021/10/15 09:42:45;;;;;;;5.07;1.00;;;13.70;52.00;;;;;;4804564;28;20196;-87
2021/10/15 09:45:14;;;;;;;6.30;1.13;;;14.00;52.10;;;;;;4807150;28;20231;-83
2021/10/15 09:47:37;;;;;;;5.13;0.90;;;;;;;;;;4804481;28;20248;-80
2021/10/15 09:50:02;;;;;;;12.10;2.03;;;14.70;51.50;;;;;;4820327;28;20673;-76
2021/10/15 09:52:44;;;;;;;6.13;1.13;;;15.20;51.70;;;;;;4804289;28;20200;-79
2021/10/15 09:55:15;;;;;;;5.17;0.87;;;14.80;51.70;;;;;;4804440;28;20208;-75
2021/10/15 09:57:40;;;;;;;5.93;1.00;;;14.70;52.90;;;;;;4822561;28;20254;-78
2021/10/15 10:00:06;;;;;;;4.17;0.80;;;14.90;52.90;;;;;;4806836;28;20247;-77
2021/10/15 10:02:29;;;;;;;5.70;0.97;;;15.00;52.90;;;;;;4838907;28;20256;-79
2021/10/15 10:04:53;;;;;;;11.80;1.80;;;15.10;53.00;;;;;;4839845;28;20219;-76
2021/10/15 10:07:16;;;;;;;6.60;1.20;;;;;;;;;;4822583;28;20685;-80
2021/10/15 10:09:38;;;;;;;6.10;1.00;;;;;;;;;;4822876;28;20200;-77
2021/10/15 10:12:01;;;;;;;4.37;0.77;;;;;;;;;;4822444;28;20655;-79
2021/10/15 10:14:25;;;;;;;4.73;0.83;;;15.20;53.30;;;;;;4822625;28;20258;-77
2021/10/15 10:16:49;;;;;;;12.10;1.80;;;15.20;53.10;;;;;;4822155;28;20207;-80
2021/10/15 10:19:13;;;;;;;5.60;1.00;;;15.20;53.20;;;;;;4823125;28;20203;-81
2021/10/15 10:21:36;;;;;;;6.77;1.00;;;;;;;;;;4822934;28;20203;-80
2021/10/15 10:24:05;;;;;;;12.53;2.03;;;15.40;53.30;;;;;;4839685;28;20266;-81
2021/10/15 10:26:28;;;;;;;6.37;1.13;;;15.40;53.40;;;;;;4806497;28;20263;-77
2021/10/15 10:29:00;;;;;;;12.90;1.93;;;15.50;53.30;;;;;;4822427;28;20205;-80
2021/10/15 10:31:24;;;;;;;3.30;0.60;;;15.70;53.60;;;;;;4822592;28;20669;-81
2021/10/15 10:33:57;;;;;;;11.50;1.70;;;15.90;53.80;;;;;;4822044;28;20195;-79
2021/10/15 10:36:20;;;;;;;6.43;1.00;;;16.10;52.80;;;;;;4806048;28;20251;-80
2021/10/15 10:38:43;;;;;;;3.23;0.60;;;;;;;;;;4806232;28;20192;-84
2021/10/15 10:41:30;;;;;;;7.50;1.17;;;15.70;52.60;;;;;;4840246;28;20604;-83
2021/10/15 10:44:19;;;;;;;11.40;1.67;;;15.40;53.70;;;;;;4786141;28;20224;-86
2021/10/15 10:47:04;;;;;;;4.07;0.80;;;15.20;53.60;;;;;;4764716;28;20253;-78
2021/10/15 10:49:27;;;;;;;4.97;0.83;;;15.60;52.50;;;;;;4803943;28;20619;-91
2021/10/15 10:52:12;;;;;;;12.13;1.80;;;15.00;53.40;;;;;;4810267;28;20264;-85
2021/10/15 10:54:35;;;;;;;9.13;1.40;;;;;;;;;;4800447;28;20271;-80
2021/10/15 10:56:58;;;;;;;12.23;1.87;;;;;;;;;;4839108;28;20183;-82
2021/10/15 10:59:30;;;;;;;6.50;1.30;;;15.00;53.40;;;;;;4838917;28;20199;-79
2021/10/15 11:01:55;;;;;;;9.90;1.63;;;14.70;53.40;;;;;;4821022;28;20347;-80
2021/10/15 11:04:28;;;;;;;5.40;1.00;;;14.40;53.20;;;;;;4821988;28;20220;-79
2021/10/15 11:06:58;;;;;;;7.43;1.13;;;13.60;51.50;;;;;;4840677;28;20179;-84
2021/10/15 11:09:31;;;;;;;4.63;0.80;;;14.10;51.60;;;;;;4840366;28;20586;-85
2021/10/15 11:11:54;;;;;;;9.87;1.53;;;;;;;;;;4822348;28;20682;-83
2021/10/15 11:14:49;;;;;;;6.10;1.10;;;14.00;51.30;;;;;;4821970;28;20197;-86
2021/10/15 11:17:14;;;;;;;5.67;1.00;;;13.60;52.40;;;;;;4822290;28;20199;-82
2021/10/15 11:19:36;;;;;;;6.47;1.17;;;;;;;;;;4821658;28;20605;-79
2021/10/15 11:22:02;;;;;;;11.27;1.80;;;13.60;52.40;;;;;;4838992;28;20191;-81
2021/10/15 11:24:25;;;;;;;5.57;0.93;;;;;;;;;;4838719;28;20622;-77
2021/10/15 11:26:47;;;;;;;12.23;1.87;;;;;;;;;;4838456;28;20192;-80
2021/10/15 11:29:10;;;;;;;6.13;1.00;;;;;;;;;;4821379;28;20200;-77
2021/10/15 11:31:33;;;;;;;5.30;0.90;;;;;;;;;;4820990;28;20598;-77
2021/10/15 11:34:08;;;;;;;11.33;1.80;;;13.00;52.10;;;;;;4821334;28;20234;-77
2021/10/15 11:36:31;;;;;;;5.73;1.00;;;;;;;;;;4821057;28;20215;-79
2021/10/15 11:39:00;;;;;;;12.00;1.90;;;12.90;51.90;;;;;;4820629;28;20208;-79
2021/10/15 11:41:23;;;;;;;7.43;1.23;;;;;;;;;;4820687;28;20657;-79
2021/10/15 11:43:46;;;;;;;11.17;1.80;;;;;;;;;;4837919;28;20649;-75
2021/10/15 11:46:10;;;;;;;6.40;1.10;;;13.20;50.90;;;;;;4804270;28;20642;-77
2021/10/15 11:48:37;;;;;;;5.43;1.00;;;13.00;52.00;;;;;;4838517;28;20522;-77
2021/10/15 11:51:03;;;;;;;12.70;2.07;;;13.20;52.10;;;;;;4837070;28;20191;-78
2021/10/15 11:53:27;;;;;;;5.87;1.00;;;13.30;52.20;;;;;;4805100;28;20254;-76
2021/10/15 11:55:50;;;;;;;12.33;1.90;;;13.50;52.30;;;;;;4836581;28;20194;-79
2021/10/15 11:58:25;;;;;;;6.40;1.17;;;13.70;52.40;;;;;;4838223;28;20687;-82
2021/10/15 12:01:10;;;;;;;19.90;2.90;;;13.80;52.60;;;;;;4802499;28;20199;-76
2021/10/15 12:03:34;;;;;;;6.73;1.20;;;13.90;52.60;;;;;;4800435;28;20204;-78
2021/10/15 12:05:57;;;;;;;19.10;2.73;;;13.90;52.60;;;;;;4837935;28;20218;-77
2021/10/15 12:08:21;;;;;;;7.10;1.10;;;13.80;52.60;;;;;;4837852;28;20226;-78
2021/10/15 12:10:45;;;;;;;6.50;1.13;;;13.60;52.40;;;;;;4820687;28;20203;-79
2021/10/15 12:13:07;;;;;;;8.97;1.53;;;;;;;;;;4820922;28;20207;-77
2021/10/15 12:15:30;;;;;;;16.00;2.57;;;;;;;;;;4808669;28;20234;-80
2021/10/15 12:18:06;;;;;;;12.83;2.03;;;13.30;52.20;;;;;;4812568;28;20704;-80
2021/10/15 12:20:28;;;;;;;6.37;1.10;;;13.50;51.10;;;;;;4836517;28;20198;-79
2021/10/15 12:22:51;;;;;;;12.90;2.10;;;;;;;;;;4819461;28;20659;-79
2021/10/15 12:25:26;;;;;;;5.70;1.10;;;13.20;52.00;;;;;;4819851;28;20223;-77
2021/10/15 12:27:49;;;;;;;14.13;2.17;;;;;;;;;;4818291;28;20190;-78
2021/10/15 12:30:17;;;;;;;9.03;1.37;;;14.30;52.40;;;;;;4820365;28;20298;-77
2021/10/15 12:32:41;;;;;;;9.30;1.60;;;13.40;51.10;;;;;;4837452;28;20190;-77
2021/10/15 12:35:09;;;;;;;5.37;1.03;;;12.90;51.80;;;;;;4837162;28;20229;-74
2021/10/15 12:37:41;;;;;;;8.73;1.50;;;12.70;50.60;;;;;;4835603;28;20186;-78
2021/10/15 12:40:38;;;;;;;4.33;0.87;;;13.40;51.40;;;;;;4819920;28;20222;-76
2021/10/15 12:43:10;;;;;;;4.20;0.80;;;12.40;50.40;;;;;;4813978;28;20235;-79
2021/10/15 12:45:35;;;;;;;5.23;1.00;;;12.70;51.70;;;;;;4820100;28;20293;-76
2021/10/15 12:47:59;;;;;;;14.53;2.37;;;12.10;50.90;;;;;;4819771;28;20195;-78
2021/10/15 12:50:22;;;;;;;2.93;0.60;;;;;;;;;;4822742;28;20211;-78
2021/10/15 12:52:45;;;;;;;8.70;1.50;;;;;;;;;;4819865;28;20254;-77
2021/10/15 12:55:14;;;;;;;6.30;1.10;;;12.70;51.60;;;;;;4837704;28;20187;-77
2021/10/15 12:57:38;;;;;;;6.10;1.07;;;12.80;51.60;;;;;;4820390;28;20245;-76
2021/10/15 13:00:06;;;;;;;5.23;0.90;;;12.80;51.70;;;;;;4837455;28;20606;-78
2021/10/15 13:02:30;;;;;;;8.77;1.33;;;12.70;51.60;;;;;;4817895;28;20242;-80
2021/10/15 13:04:54;;;;;;;11.67;2.03;;;;;;;;;;4836983;28;20210;-78
2021/10/15 13:07:17;;;;;;;5.10;1.00;;;;;;;;;;4817241;28;20282;-80
2021/10/15 13:09:40;;;;;;;6.30;1.17;;;;;;;;;;4785575;28;20208;-77
2021/10/15 13:12:02;;;;;;;3.70;0.80;;;;;;;;;;4819003;28;20590;-79
2021/10/15 13:14:26;;;;;;;5.67;1.13;;;12.60;51.50;;;;;;4817313;28;20235;-79
2021/10/15 13:16:49;;;;;;;10.83;1.70;;;;;;;;;;4817322;28;20183;-78
2021/10/15 13:19:14;;;;;;;4.70;0.90;;;;;;;;;;4817397;28;20286;-79
2021/10/15 13:21:36;;;;;;;4.50;0.90;;;;;;;;;;4818790;28;20238;-78
2021/10/15 13:23:59;;;;;;;13.17;2.17;;;13.50;51.10;;;;;;4818545;28;20183;-81
2021/10/15 13:26:21;;;;;;;3.80;0.87;;;;;;;;;;4817451;28;20274;-78